createdAt,value
2023-05-05T00:00:28.600Z,9633.00
2023-05-05T00:01:28.556Z,9416.00
2023-05-05T00:02:28.675Z,9241.00
2023-05-05T00:03:28.748Z,9064.00
2023-05-05T00:04:28.671Z,8791.00
2023-05-05T00:05:28.713Z,8505.00
2023-05-05T00:06:28.824Z,8528.00
2023-05-05T00:07:28.825Z,8414.00
2023-05-05T00:08:28.851Z,8360.00
2023-05-05T00:09:28.874Z,8346.00
2023-05-05T00:10:29.221Z,8381.00
2023-05-05T00:11:28.908Z,8557.00
2023-05-05T00:12:28.976Z,8630.00
2023-05-05T00:13:28.962Z,8642.00
2023-05-05T00:14:28.969Z,8642.00
2023-05-05T00:15:29.047Z,9141.00
2023-05-05T00:16:29.098Z,9625.00
2023-05-05T00:17:29.061Z,9771.00
2023-05-05T00:18:29.092Z,9734.00
2023-05-05T00:19:29.064Z,9699.00
2023-05-05T00:20:29.045Z,9857.00
2023-05-05T00:21:29.159Z,10068.00
2023-05-05T00:22:29.113Z,10145.00
2023-05-05T00:23:29.161Z,10342.00
2023-05-05T00:24:29.186Z,10355.00
2023-05-05T00:25:29.182Z,10473.00
2023-05-05T00:26:29.248Z,10593.00
2023-05-05T00:27:29.211Z,10429.00
2023-05-05T00:28:29.173Z,10329.00
2023-05-05T00:29:29.228Z,10348.00
2023-05-05T00:30:29.198Z,10511.00
2023-05-05T00:31:29.305Z,10562.00
2023-05-05T00:32:29.292Z,10572.00
2023-05-05T00:33:29.266Z,10629.00
2023-05-05T00:34:29.235Z,10596.00
2023-05-05T00:35:29.246Z,10611.00
2023-05-05T00:36:29.233Z,10644.00
2023-05-05T00:37:29.265Z,10696.00
2023-05-05T00:38:29.292Z,10642.00
2023-05-05T00:39:29.294Z,10518.00
2023-05-05T00:40:29.304Z,10527.00
2023-05-05T00:41:29.309Z,10618.00
2023-05-05T00:42:29.333Z,10736.00
2023-05-05T00:43:29.351Z,10786.00
2023-05-05T00:44:29.431Z,10749.00
2023-05-05T00:45:29.488Z,10677.00
2023-05-05T00:46:29.615Z,10659.00
2023-05-05T00:47:29.546Z,10666.00
2023-05-05T00:48:29.591Z,10682.00
2023-05-05T00:49:29.697Z,10686.00
2023-05-05T00:50:29.669Z,10718.00
2023-05-05T00:51:29.739Z,10760.00
2023-05-05T00:52:29.738Z,10734.00
2023-05-05T00:53:29.811Z,10719.00
2023-05-05T00:54:29.831Z,10588.00
2023-05-05T00:55:29.901Z,10527.00
2023-05-05T00:56:29.988Z,10562.00
2023-05-05T00:57:30.008Z,10575.00
2023-05-05T00:58:30.027Z,10841.00
2023-05-05T00:59:30.127Z,10839.00
2023-05-05T01:00:30.143Z,10829.00
2023-05-05T01:01:30.285Z,10987.00
2023-05-05T01:02:30.300Z,11014.00
2023-05-05T01:03:30.356Z,10977.00
2023-05-05T01:04:30.314Z,10968.00
2023-05-05T01:05:30.318Z,10982.00
2023-05-05T01:06:30.338Z,10950.00
2023-05-05T01:07:30.358Z,10786.00
2023-05-05T01:08:30.424Z,10707.00
2023-05-05T01:09:30.446Z,10595.00
2023-05-05T01:10:30.491Z,10442.00
2023-05-05T01:11:30.526Z,10281.00
2023-05-05T01:12:30.647Z,10129.00
2023-05-05T01:13:30.593Z,10051.00
2023-05-05T01:14:30.594Z,10039.00
2023-05-05T01:15:30.605Z,10128.00
2023-05-05T01:16:30.606Z,10238.00
2023-05-05T01:17:30.607Z,10257.00
2023-05-05T01:18:30.573Z,10357.00
2023-05-05T01:19:30.652Z,10536.00
2023-05-05T01:20:30.669Z,10563.00
2023-05-05T01:21:30.674Z,10469.00
2023-05-05T01:22:30.708Z,10327.00
2023-05-05T01:23:30.724Z,10273.00
2023-05-05T01:24:30.770Z,10209.00
2023-05-05T01:25:30.802Z,10150.00
2023-05-05T01:26:30.818Z,10177.00
2023-05-05T01:27:30.844Z,10257.00
2023-05-05T01:28:30.936Z,10438.00
2023-05-05T01:29:30.941Z,10535.00
2023-05-05T01:30:30.980Z,10571.00
2023-05-05T01:31:31.007Z,10636.00
2023-05-05T01:32:30.973Z,10702.00
2023-05-05T01:33:31.059Z,10728.00
2023-05-05T01:34:31.084Z,10670.00
2023-05-05T01:35:31.173Z,10657.00
2023-05-05T01:36:31.173Z,10665.00
2023-05-05T01:37:31.167Z,10653.00
2023-05-05T01:38:31.166Z,10669.00
2023-05-05T01:39:31.194Z,10670.00
2023-05-05T01:40:31.296Z,10688.00
2023-05-05T01:41:31.585Z,10658.00
2023-05-05T01:42:31.398Z,10576.00
2023-05-05T01:43:31.447Z,10624.00
2023-05-05T01:44:31.583Z,10714.00
2023-05-05T01:45:31.604Z,10767.00
2023-05-05T01:46:31.636Z,10802.00
2023-05-05T01:47:31.709Z,10879.00
2023-05-05T01:48:31.741Z,10886.00
2023-05-05T01:49:31.681Z,10783.00
2023-05-05T01:50:31.718Z,10738.00
2023-05-05T01:51:31.747Z,10721.00
2023-05-05T01:52:31.819Z,10810.00
2023-05-05T01:53:31.887Z,10775.00
2023-05-05T01:54:31.940Z,10762.00
2023-05-05T01:55:31.998Z,10817.00
2023-05-05T01:56:31.969Z,10964.00
2023-05-05T01:57:32.000Z,10953.00
2023-05-05T01:58:32.013Z,10948.00
2023-05-05T01:59:32.031Z,10951.00
2023-05-05T02:00:32.033Z,10959.00
2023-05-05T02:01:32.057Z,10931.00
2023-05-05T02:02:32.148Z,10992.00
2023-05-05T02:03:32.069Z,11020.00
2023-05-05T02:04:32.104Z,11027.00
2023-05-05T02:05:32.113Z,11017.00
2023-05-05T02:06:32.175Z,10926.00
2023-05-05T02:07:32.140Z,10778.00
2023-05-05T02:08:32.168Z,10676.00
2023-05-05T02:09:32.263Z,10639.00
2023-05-05T02:10:32.282Z,10706.00
2023-05-05T02:11:32.383Z,10736.00
2023-05-05T02:12:32.458Z,10799.00
2023-05-05T02:13:32.486Z,10878.00
2023-05-05T02:14:32.446Z,10943.00
2023-05-05T02:15:32.457Z,11030.00
2023-05-05T02:16:32.522Z,11147.00
2023-05-05T02:17:32.494Z,11204.00
2023-05-05T02:18:32.512Z,11160.00
2023-05-05T02:19:32.559Z,11022.00
2023-05-05T02:20:32.575Z,11010.00
2023-05-05T02:21:32.546Z,10976.00
2023-05-05T02:22:32.553Z,11040.00
2023-05-05T02:23:32.543Z,11189.00
2023-05-05T02:24:32.602Z,11248.00
2023-05-05T02:25:32.627Z,11233.00
2023-05-05T02:26:32.617Z,11253.00
2023-05-05T02:27:32.640Z,11278.00
2023-05-05T02:28:32.615Z,11343.00
2023-05-05T02:29:32.650Z,11465.00
2023-05-05T02:30:32.652Z,11573.00
2023-05-05T02:31:32.726Z,11520.00
2023-05-05T02:32:32.659Z,11483.00
2023-05-05T02:33:32.592Z,11437.00
2023-05-05T02:34:32.628Z,11364.00
2023-05-05T02:35:32.637Z,11202.00
2023-05-05T02:36:32.680Z,11098.00
2023-05-05T02:37:32.713Z,11005.00
2023-05-05T02:38:32.690Z,10844.00
2023-05-05T02:39:32.736Z,10698.00
2023-05-05T02:40:32.758Z,10646.00
2023-05-05T02:41:32.816Z,10640.00
2023-05-05T02:42:32.810Z,10635.00
2023-05-05T02:43:32.825Z,10625.00
2023-05-05T02:44:32.873Z,10582.00
2023-05-05T02:45:32.959Z,10581.00
2023-05-05T02:46:33.082Z,10579.00
2023-05-05T02:47:33.106Z,10613.00
2023-05-05T02:48:33.132Z,10672.00
2023-05-05T02:49:33.122Z,10744.00
2023-05-05T02:50:33.161Z,10848.00
2023-05-05T02:51:33.178Z,10975.00
2023-05-05T02:52:33.142Z,11106.00
2023-05-05T02:53:33.157Z,11204.00
2023-05-05T02:54:33.191Z,11287.00
2023-05-05T02:55:33.237Z,11345.00
2023-05-05T02:56:33.283Z,11390.00
2023-05-05T02:57:33.357Z,11396.00
2023-05-05T02:58:33.441Z,11393.00
2023-05-05T02:59:33.465Z,11327.00
2023-05-05T03:00:33.508Z,11211.00
2023-05-05T03:01:33.522Z,11055.00
2023-05-05T03:02:33.605Z,10979.00
2023-05-05T03:03:33.630Z,10928.00
2023-05-05T03:04:33.520Z,10882.00
2023-05-05T03:05:33.532Z,10854.00
2023-05-05T03:06:33.612Z,10789.00
2023-05-05T03:07:33.601Z,10691.00
2023-05-05T03:08:33.580Z,10685.00
2023-05-05T03:09:33.557Z,10602.00
2023-05-05T03:10:33.581Z,10493.00
2023-05-05T03:11:33.643Z,10437.00
2023-05-05T03:12:33.715Z,10432.00
2023-05-05T03:13:33.751Z,10449.00
2023-05-05T03:14:33.751Z,10510.00
2023-05-05T03:15:33.776Z,10459.00
2023-05-05T03:16:33.853Z,10447.00
2023-05-05T03:17:33.843Z,10406.00
2023-05-05T03:18:33.802Z,10387.00
2023-05-05T03:19:33.849Z,10439.00
2023-05-05T03:20:33.807Z,10472.00
2023-05-05T03:21:33.862Z,10540.00
2023-05-05T03:22:33.909Z,10605.00
2023-05-05T03:23:33.958Z,10657.00
2023-05-05T03:24:34.041Z,10668.00
2023-05-05T03:25:34.054Z,10683.00
2023-05-05T03:26:34.106Z,10657.00
2023-05-05T03:27:34.160Z,10540.00
2023-05-05T03:28:34.157Z,10539.00
2023-05-05T03:29:34.196Z,10605.00
2023-05-05T03:30:34.192Z,10668.00
2023-05-05T03:31:34.252Z,10741.00
2023-05-05T03:32:34.289Z,10797.00
2023-05-05T03:33:34.261Z,10822.00
2023-05-05T03:34:34.287Z,10841.00
2023-05-05T03:35:34.341Z,10903.00
2023-05-05T03:36:34.339Z,11019.00
2023-05-05T03:37:34.341Z,11072.00
2023-05-05T03:38:34.350Z,11076.00
2023-05-05T03:39:34.361Z,11103.00
2023-05-05T03:40:43.419Z,11090.00
2023-05-05T03:41:35.381Z,11016.00
2023-05-05T03:42:34.305Z,10982.00
2023-05-05T03:43:34.401Z,10741.00
2023-05-05T03:44:34.316Z,10748.00
2023-05-05T03:45:34.326Z,10796.00
2023-05-05T03:46:34.301Z,10863.00
2023-05-05T03:47:34.324Z,10951.00
2023-05-05T03:48:34.320Z,11019.00
2023-05-05T03:49:34.299Z,11058.00
2023-05-05T03:50:34.249Z,11062.00
2023-05-05T03:51:34.427Z,10977.00
2023-05-05T03:52:34.382Z,10887.00
2023-05-05T03:53:34.492Z,10737.00
2023-05-05T03:54:34.562Z,10605.00
2023-05-05T03:55:34.579Z,10365.00
2023-05-05T03:56:34.598Z,10056.00
2023-05-05T03:57:34.600Z,9982.00
2023-05-05T03:58:34.637Z,9905.00
2023-05-05T03:59:34.620Z,10092.00
2023-05-05T04:00:34.715Z,10309.00
2023-05-05T04:01:34.765Z,10468.00
2023-05-05T04:02:34.811Z,10578.00
2023-05-05T04:03:34.798Z,10573.00
2023-05-05T04:04:34.914Z,10507.00
2023-05-05T04:05:34.839Z,10445.00
2023-05-05T04:06:34.951Z,10393.00
2023-05-05T04:07:35.953Z,10398.00
2023-05-05T04:08:35.015Z,10533.00
2023-05-05T04:09:35.069Z,10483.00
2023-05-05T04:10:35.134Z,10536.00
2023-05-05T04:11:35.607Z,10341.00
2023-05-05T04:12:35.214Z,10230.00
2023-05-05T04:13:35.293Z,10236.00
2023-05-05T04:14:35.316Z,10224.00
2023-05-05T04:15:35.324Z,10189.00
2023-05-05T04:16:35.318Z,10094.00
2023-05-05T04:17:35.384Z,10021.00
2023-05-05T04:18:35.326Z,10003.00
2023-05-05T04:19:35.334Z,10110.00
2023-05-05T04:20:35.355Z,10264.00
2023-05-05T04:21:35.449Z,10431.00
2023-05-05T04:22:35.391Z,10521.00
2023-05-05T04:23:35.392Z,10594.00
2023-05-05T04:24:35.364Z,10648.00
2023-05-05T04:25:35.406Z,10587.00
2023-05-05T04:26:35.390Z,10654.00
2023-05-05T04:27:35.409Z,10739.00
2023-05-05T04:28:35.400Z,10726.00
2023-05-05T04:29:35.424Z,10689.00
2023-05-05T04:30:35.487Z,10727.00
2023-05-05T04:31:35.529Z,10693.00
2023-05-05T04:32:35.510Z,10619.00
2023-05-05T04:33:35.557Z,10604.00
2023-05-05T04:34:35.542Z,10575.00
2023-05-05T04:35:35.558Z,10499.00
2023-05-05T04:36:35.569Z,10580.00
2023-05-05T04:37:35.610Z,10551.00
2023-05-05T04:38:35.679Z,10552.00
2023-05-05T04:39:35.711Z,10530.00
2023-05-05T04:40:35.721Z,10507.00
2023-05-05T04:41:35.753Z,10542.00
2023-05-05T04:42:35.795Z,10602.00
2023-05-05T04:43:35.866Z,10729.00
2023-05-05T04:44:35.813Z,10848.00
2023-05-05T04:45:35.795Z,10882.00
2023-05-05T04:46:35.862Z,10944.00
2023-05-05T04:47:35.868Z,11202.00
2023-05-05T04:48:35.856Z,11145.00
2023-05-05T04:49:35.862Z,11088.00
2023-05-05T04:50:35.877Z,11102.00
2023-05-05T04:51:35.971Z,11130.00
2023-05-05T04:52:35.954Z,11156.00
2023-05-05T04:53:35.996Z,11087.00
2023-05-05T04:54:36.021Z,11044.00
2023-05-05T04:55:36.008Z,10946.00
2023-05-05T04:56:36.061Z,10861.00
2023-05-05T04:57:36.123Z,10751.00
2023-05-05T04:58:36.140Z,10568.00
2023-05-05T04:59:36.149Z,10539.00
2023-05-05T05:00:36.178Z,10467.00
2023-05-05T05:01:49.670Z,10407.00
2023-05-05T05:02:36.223Z,10408.00
2023-05-05T05:03:36.582Z,10412.00
2023-05-05T05:04:36.196Z,10447.00
2023-05-05T05:05:36.190Z,10524.00
2023-05-05T05:06:36.128Z,10633.00
2023-05-05T05:07:36.148Z,10734.00
2023-05-05T05:08:36.143Z,10770.00
2023-05-05T05:09:36.104Z,10810.00
2023-05-05T05:10:36.153Z,10847.00
2023-05-05T05:11:36.118Z,10814.00
2023-05-05T05:12:36.208Z,10743.00
2023-05-05T05:13:36.076Z,10723.00
2023-05-05T05:14:36.086Z,10746.00
2023-05-05T05:15:36.098Z,10735.00
2023-05-05T05:16:36.260Z,10770.00
2023-05-05T05:17:36.108Z,10765.00
2023-05-05T05:18:36.060Z,10734.00
2023-05-05T05:19:36.070Z,10711.00
2023-05-05T05:20:36.026Z,10702.00
2023-05-05T05:21:36.127Z,10744.00
2023-05-05T05:22:36.147Z,10680.00
2023-05-05T05:23:36.146Z,10706.00
2023-05-05T05:24:36.106Z,10683.00
2023-05-05T05:25:36.115Z,10737.00
2023-05-05T05:26:36.211Z,10841.00
2023-05-05T05:27:36.173Z,10866.00
2023-05-05T05:28:36.237Z,10931.00
2023-05-05T05:29:36.284Z,10983.00
2023-05-05T05:30:36.251Z,10997.00
2023-05-05T05:31:36.847Z,10933.00
2023-05-05T05:32:36.313Z,10885.00
2023-05-05T05:33:36.273Z,10807.00
2023-05-05T05:34:36.292Z,10650.00
2023-05-05T05:35:36.392Z,10582.00
2023-05-05T05:36:36.738Z,10605.00
2023-05-05T05:37:36.400Z,10609.00
2023-05-05T05:38:36.481Z,10630.00
2023-05-05T05:39:36.297Z,10606.00
2023-05-05T05:40:36.546Z,10459.00
2023-05-05T05:41:36.457Z,10188.00
2023-05-05T05:42:36.489Z,10056.00
2023-05-05T05:43:36.571Z,9809.00
2023-05-05T05:44:36.606Z,9695.00
2023-05-05T05:46:46.392Z,9762.00
2023-05-05T05:47:36.709Z,9770.00
2023-05-05T05:48:36.631Z,9822.00
2023-05-05T05:49:36.637Z,9879.00
2023-05-05T05:50:36.609Z,9918.00
2023-05-05T05:51:36.603Z,9703.00
2023-05-05T05:52:36.710Z,9709.00
2023-05-05T05:53:36.714Z,9573.00
2023-05-05T05:54:36.608Z,9337.00
2023-05-05T05:55:36.632Z,9331.00
2023-05-05T05:56:36.614Z,9330.00
2023-05-05T05:57:36.672Z,9102.00
2023-05-05T05:58:36.598Z,9160.00
2023-05-05T05:59:36.543Z,9148.00
2023-05-05T06:00:36.568Z,9256.00
2023-05-05T06:01:36.551Z,8971.00
2023-05-05T06:02:36.677Z,8910.00
2023-05-05T06:03:36.612Z,8974.00
2023-05-05T06:04:36.678Z,8925.00
2023-05-05T06:05:36.530Z,9011.00
2023-05-05T06:06:36.588Z,9101.00
2023-05-05T06:07:36.588Z,8963.00
2023-05-05T06:08:36.484Z,8975.00
2023-05-05T06:09:36.518Z,9050.00
2023-05-05T06:10:36.471Z,8951.00
2023-05-05T06:11:36.664Z,8768.00
2023-05-05T06:12:36.529Z,8372.00
2023-05-05T06:13:36.448Z,8361.00
2023-05-05T06:14:36.529Z,8263.00
2023-05-05T06:15:36.494Z,8362.00
2023-05-05T06:16:36.446Z,8194.00
2023-05-05T06:17:36.518Z,8193.00
2023-05-05T06:18:36.455Z,8038.00
2023-05-05T06:19:36.422Z,7848.00
2023-05-05T06:20:36.469Z,7860.00
2023-05-05T06:21:36.388Z,8153.00
2023-05-05T06:22:36.441Z,8047.00
2023-05-05T06:23:36.398Z,7638.00
2023-05-05T06:24:36.416Z,7596.00
2023-05-05T06:25:36.419Z,7349.00
2023-05-05T06:26:36.403Z,7169.00
2023-05-05T06:27:36.352Z,7211.00
2023-05-05T06:28:36.401Z,6875.00
2023-05-05T06:29:36.434Z,6942.00
2023-05-05T06:30:36.539Z,5939.00
2023-05-05T06:31:36.586Z,5857.00
2023-05-05T06:32:36.615Z,6370.00
2023-05-05T06:33:36.579Z,7158.00
2023-05-05T06:34:36.584Z,7427.00
2023-05-05T06:35:36.686Z,7513.00
2023-05-05T06:36:36.809Z,7740.00
2023-05-05T06:37:36.810Z,7854.00
2023-05-05T06:38:36.779Z,7384.00
2023-05-05T06:39:36.772Z,7201.00
2023-05-05T06:40:36.810Z,7097.00
2023-05-05T06:41:36.789Z,7059.00
2023-05-05T06:42:36.758Z,6685.00
2023-05-05T06:43:36.825Z,6770.00
2023-05-05T06:44:36.778Z,6783.00
2023-05-05T06:45:36.853Z,6441.00
2023-05-05T06:46:36.828Z,6037.00
2023-05-05T06:47:37.899Z,5527.00
2023-05-05T06:48:36.859Z,5400.00
2023-05-05T06:49:36.779Z,5519.00
2023-05-05T06:50:37.964Z,5669.00
2023-05-05T06:51:36.810Z,5506.00
2023-05-05T06:52:37.209Z,5425.00
2023-05-05T06:53:36.798Z,4867.00
2023-05-05T06:54:36.813Z,4857.00
2023-05-05T06:55:36.757Z,4831.00
2023-05-05T06:56:36.730Z,4842.00
2023-05-05T06:57:36.789Z,4708.00
2023-05-05T06:58:36.782Z,4628.00
2023-05-05T06:59:36.754Z,4526.00
2023-05-05T07:00:36.816Z,4491.00
2023-05-05T07:01:36.776Z,4475.00
2023-05-05T07:02:37.364Z,4179.00
2023-05-05T07:03:36.689Z,3747.00
2023-05-05T07:04:36.819Z,3778.00
2023-05-05T07:05:36.806Z,3943.00
2023-05-05T07:06:36.843Z,4037.00
2023-05-05T07:07:36.839Z,4280.00
2023-05-05T07:08:36.777Z,4439.00
2023-05-05T07:09:36.985Z,4295.00
2023-05-05T07:10:36.945Z,4137.00
2023-05-05T07:11:36.950Z,4038.00
2023-05-05T07:12:37.065Z,4136.00
2023-05-05T07:13:37.047Z,4204.00
2023-05-05T07:14:36.955Z,3681.00
2023-05-05T07:15:37.071Z,3707.00
2023-05-05T07:16:37.231Z,3976.00
2023-05-05T07:17:37.269Z,3907.00
2023-05-05T07:18:37.152Z,3783.00
2023-05-05T07:19:37.161Z,3530.00
2023-05-05T07:20:37.443Z,3146.00
2023-05-05T07:21:37.215Z,3004.00
2023-05-05T07:22:37.414Z,2874.00
2023-05-05T07:23:37.442Z,2792.00
2023-05-05T07:24:37.524Z,2930.00
2023-05-05T07:25:37.447Z,3125.00
2023-05-05T07:26:37.343Z,3291.00
2023-05-05T07:27:37.752Z,3405.00
2023-05-05T07:28:37.976Z,3288.00
2023-05-05T07:29:37.591Z,3211.00
2023-05-05T07:30:37.699Z,3276.00
2023-05-05T07:31:37.744Z,3267.00
2023-05-05T07:32:37.831Z,3139.00
2023-05-05T07:33:37.762Z,3080.00
2023-05-05T07:34:37.781Z,2754.00
2023-05-05T07:35:37.833Z,3072.00
2023-05-05T07:36:37.900Z,3393.00
2023-05-05T07:37:38.239Z,3299.00
2023-05-05T07:38:37.932Z,2707.00
2023-05-05T07:39:38.009Z,2253.00
2023-05-05T07:40:38.036Z,2272.00
2023-05-05T07:41:38.062Z,2248.00
2023-05-05T07:42:38.127Z,2018.00
2023-05-05T07:43:39.297Z,1781.00
2023-05-05T07:44:38.246Z,1997.00
2023-05-05T07:45:38.301Z,1495.00
2023-05-05T07:46:38.298Z,1352.00
2023-05-05T07:47:38.394Z,1291.00
2023-05-05T07:48:38.334Z,1613.00
2023-05-05T07:49:38.339Z,1641.00
2023-05-05T07:50:38.428Z,1714.00
2023-05-05T07:51:38.415Z,1859.00
2023-05-05T07:53:39.475Z,1252.00
2023-05-05T07:54:38.542Z,1388.00
2023-05-05T07:55:38.464Z,1443.00
2023-05-05T07:56:38.383Z,1278.00
2023-05-05T07:57:38.404Z,1620.00
2023-05-05T07:58:38.475Z,2149.00
2023-05-05T07:59:38.406Z,1553.00
2023-05-05T08:00:38.431Z,1285.00
2023-05-05T08:01:38.371Z,1238.00
2023-05-05T08:02:38.490Z,1451.00
2023-05-05T08:03:38.941Z,1644.00
2023-05-05T08:04:38.574Z,1590.00
2023-05-05T08:05:38.400Z,1648.00
2023-05-05T08:06:38.433Z,1715.00
2023-05-05T08:07:38.351Z,1749.00
2023-05-05T08:08:38.456Z,1870.00
2023-05-05T08:09:38.552Z,2208.00
2023-05-05T08:10:38.653Z,2509.00
2023-05-05T08:11:38.675Z,2630.00
2023-05-05T08:12:38.615Z,2651.00
2023-05-05T08:13:38.772Z,2373.00
2023-05-05T08:14:38.712Z,2360.00
2023-05-05T08:15:38.782Z,2071.00
2023-05-05T08:16:38.796Z,1356.00
2023-05-05T08:17:38.917Z,1101.00
2023-05-05T08:18:38.925Z,947.00
2023-05-05T08:19:39.026Z,1081.00
2023-05-05T08:20:39.013Z,671.00
2023-05-05T08:21:38.976Z,591.00
2023-05-05T08:22:38.979Z,491.00
2023-05-05T08:23:39.046Z,578.00
2023-05-05T08:24:38.987Z,636.00
2023-05-05T08:25:39.066Z,579.00
2023-05-05T08:26:39.169Z,574.00
2023-05-05T08:27:39.215Z,584.00
2023-05-05T08:28:39.290Z,515.00
2023-05-05T08:29:39.301Z,564.00
2023-05-05T08:30:39.375Z,453.00
2023-05-05T08:31:39.382Z,460.00
2023-05-05T08:32:39.409Z,449.00
2023-05-05T08:33:39.800Z,488.00
2023-05-05T08:34:39.417Z,434.00
2023-05-05T08:35:39.473Z,504.00
2023-05-05T08:36:39.579Z,515.00
2023-05-05T08:37:39.593Z,512.00
2023-05-05T08:38:39.676Z,500.00
2023-05-05T08:39:39.610Z,515.00
2023-05-05T08:40:39.602Z,667.00
2023-05-05T08:41:39.676Z,1543.00
2023-05-05T08:42:39.797Z,1736.00
2023-05-05T08:43:39.800Z,1566.00
2023-05-05T08:44:39.727Z,1496.00
2023-05-05T08:45:39.762Z,1530.00
2023-05-05T08:46:40.004Z,1177.00
2023-05-05T08:47:39.934Z,1248.00
2023-05-05T08:48:40.265Z,1874.00
2023-05-05T08:49:39.977Z,1935.00
2023-05-05T08:50:39.985Z,2288.00
2023-05-05T08:51:40.059Z,1396.00
2023-05-05T08:52:40.322Z,1386.00
2023-05-05T08:53:40.250Z,1553.00
2023-05-05T08:54:40.236Z,1817.00
2023-05-05T08:55:41.217Z,1579.00
2023-05-05T08:56:40.310Z,1525.00
2023-05-05T08:57:40.468Z,1560.00
2023-05-05T08:58:40.350Z,1534.00
2023-05-05T08:59:40.385Z,1601.00
2023-05-05T09:00:40.394Z,1143.00
2023-05-05T09:01:40.400Z,1305.00
2023-05-05T09:02:40.516Z,2035.00
2023-05-05T09:03:40.913Z,3423.00
2023-05-05T09:04:40.431Z,4193.00
2023-05-05T09:05:40.460Z,3164.00
2023-05-05T09:06:40.459Z,2337.00
2023-05-05T09:07:40.506Z,1616.00
2023-05-05T09:08:40.805Z,1747.00
2023-05-05T09:09:40.472Z,2472.00
2023-05-05T09:10:40.496Z,2283.00
2023-05-05T09:11:40.533Z,1085.00
2023-05-05T09:12:40.749Z,852.00
2023-05-05T09:13:40.967Z,900.00
2023-05-05T09:14:40.739Z,643.00
2023-05-05T09:15:40.784Z,557.00
2023-05-05T09:16:40.851Z,575.00
2023-05-05T09:17:40.786Z,846.00
2023-05-05T09:18:40.874Z,939.00
2023-05-05T09:19:40.965Z,988.00
2023-05-05T09:20:40.894Z,677.00
2023-05-05T09:21:40.918Z,607.00
2023-05-05T09:22:41.163Z,626.00
2023-05-05T09:23:41.037Z,841.00
2023-05-05T09:24:41.209Z,1580.00
2023-05-05T09:25:41.206Z,2595.00
2023-05-05T09:26:41.146Z,2038.00
2023-05-05T09:27:41.058Z,1583.00
2023-05-05T09:28:41.257Z,1091.00
2023-05-05T09:29:41.229Z,606.00
2023-05-05T09:30:41.318Z,445.00
2023-05-05T09:31:41.302Z,482.00
2023-05-05T09:32:41.425Z,511.00
2023-05-05T09:33:42.774Z,500.00
2023-05-05T09:34:42.276Z,507.00
2023-05-05T09:35:41.379Z,524.00
2023-05-05T09:36:41.886Z,469.00
2023-05-05T09:37:41.423Z,556.00
2023-05-05T09:38:41.473Z,707.00
2023-05-05T09:39:41.552Z,1286.00
2023-05-05T09:40:41.585Z,1687.00
2023-05-05T09:41:41.640Z,3186.00
2023-05-05T09:42:41.702Z,2914.00
2023-05-05T09:43:41.792Z,2754.00
2023-05-05T09:44:41.691Z,1942.00
2023-05-05T09:45:41.854Z,1469.00
2023-05-05T09:46:41.823Z,1769.00
2023-05-05T09:47:41.874Z,1879.00
2023-05-05T09:48:42.292Z,1718.00
2023-05-05T09:49:41.808Z,1623.00
2023-05-05T09:50:41.914Z,943.00
2023-05-05T09:51:41.795Z,1080.00
2023-05-05T09:52:42.013Z,1022.00
2023-05-05T09:53:42.070Z,1532.00
2023-05-05T09:54:41.968Z,1945.00
2023-05-05T09:55:41.980Z,1386.00
2023-05-05T09:56:42.486Z,1026.00
2023-05-05T09:57:42.164Z,870.00
2023-05-05T09:58:42.326Z,926.00
2023-05-05T09:59:42.162Z,1072.00
2023-05-05T10:00:42.280Z,1119.00
2023-05-05T10:01:42.224Z,816.00
2023-05-05T10:02:42.351Z,911.00
2023-05-05T10:03:42.777Z,1002.00
2023-05-05T10:04:42.416Z,1219.00
2023-05-05T10:05:42.483Z,899.00
2023-05-05T10:06:42.509Z,706.00
2023-05-05T10:07:42.503Z,833.00
2023-05-05T10:08:42.623Z,1146.00
2023-05-05T10:09:42.659Z,1515.00
2023-05-05T10:10:42.722Z,967.00
2023-05-05T10:11:42.623Z,794.00
2023-05-05T10:12:42.762Z,981.00
2023-05-05T10:13:42.743Z,844.00
2023-05-05T10:14:42.753Z,935.00
2023-05-05T10:15:42.748Z,777.00
2023-05-05T10:16:42.866Z,634.00
2023-05-05T10:17:53.951Z,851.00
2023-05-05T10:18:43.961Z,581.00
2023-05-05T10:19:42.905Z,400.00
2023-05-05T10:20:42.881Z,400.00
2023-05-05T10:21:42.881Z,400.00
2023-05-05T10:22:42.888Z,418.00
2023-05-05T10:23:42.884Z,481.00
2023-05-05T10:24:42.971Z,500.00
2023-05-05T10:25:42.846Z,518.00
2023-05-05T10:26:42.902Z,551.00
2023-05-05T10:27:42.841Z,525.00
2023-05-05T10:28:43.288Z,413.00
2023-05-05T10:29:42.872Z,400.00
2023-05-05T10:30:42.951Z,427.00
2023-05-05T10:31:43.022Z,536.00
2023-05-05T10:33:43.185Z,586.00
2023-05-05T10:34:43.087Z,1048.00
2023-05-05T10:35:43.087Z,1027.00
2023-05-05T10:36:42.996Z,1537.00
2023-05-05T10:37:43.030Z,1493.00
2023-05-05T10:38:43.292Z,906.00
2023-05-05T10:39:42.973Z,665.00
2023-05-05T10:40:42.961Z,616.00
2023-05-05T10:41:43.608Z,619.00
2023-05-05T10:42:42.944Z,620.00
2023-05-05T10:43:43.299Z,630.00
2023-05-05T10:44:42.922Z,627.00
2023-05-05T10:45:43.123Z,591.00
2023-05-05T10:46:43.078Z,597.00
2023-05-05T10:47:43.114Z,500.00
2023-05-05T10:48:43.200Z,1109.00
2023-05-05T10:49:43.326Z,1590.00
2023-05-05T10:50:43.299Z,1616.00
2023-05-05T10:51:43.395Z,732.00
2023-05-05T10:52:43.482Z,726.00
2023-05-05T10:53:43.411Z,4274.00
2023-05-05T10:54:43.390Z,1877.00
2023-05-05T10:55:43.454Z,1490.00
2023-05-05T10:56:43.545Z,826.00
2023-05-05T10:57:43.569Z,805.00
2023-05-05T10:58:59.115Z,538.00
2023-05-05T10:59:44.634Z,539.00
2023-05-05T11:00:43.632Z,566.00
2023-05-05T11:01:44.107Z,560.00
2023-05-05T11:02:43.609Z,892.00
2023-05-05T11:03:43.640Z,1186.00
2023-05-05T11:04:43.585Z,1244.00
2023-05-05T11:05:43.570Z,1022.00
2023-05-05T11:06:43.592Z,834.00
2023-05-05T11:07:43.533Z,753.00
2023-05-05T11:08:43.545Z,956.00
2023-05-05T11:09:43.548Z,842.00
2023-05-05T11:10:43.556Z,1097.00
2023-05-05T11:11:43.605Z,1157.00
2023-05-05T11:12:43.668Z,1796.00
2023-05-05T11:13:43.660Z,1875.00
2023-05-05T11:14:43.826Z,1186.00
2023-05-05T11:15:43.692Z,1018.00
2023-05-05T11:16:43.783Z,797.00
2023-05-05T11:17:43.755Z,725.00
2023-05-05T11:18:43.708Z,1079.00
2023-05-05T11:19:43.729Z,2156.00
2023-05-05T11:20:43.776Z,643.00
2023-05-05T11:21:43.749Z,1464.00
2023-05-05T11:22:43.850Z,1429.00
2023-05-05T11:23:43.744Z,949.00
2023-05-05T11:24:43.767Z,578.00
2023-05-05T11:25:43.859Z,595.00
2023-05-05T11:26:43.969Z,572.00
2023-05-05T11:27:43.953Z,450.00
2023-05-05T11:28:43.914Z,484.00
2023-05-05T11:29:43.995Z,567.00
2023-05-05T11:30:44.048Z,530.00
2023-05-05T11:31:43.948Z,603.00
2023-05-05T11:32:44.060Z,1124.00
2023-05-05T11:33:44.112Z,1516.00
2023-05-05T11:34:44.330Z,1005.00
2023-05-05T11:35:44.227Z,672.00
2023-05-05T11:36:44.271Z,565.00
2023-05-05T11:37:44.956Z,527.00
2023-05-05T11:38:44.304Z,541.00
2023-05-05T11:39:44.787Z,483.00
2023-05-05T11:40:44.381Z,554.00
2023-05-05T11:41:44.380Z,547.00
2023-05-05T11:42:44.316Z,591.00
2023-05-05T11:43:44.429Z,590.00
2023-05-05T11:44:44.501Z,807.00
2023-05-05T11:45:44.465Z,587.00
2023-05-05T11:46:44.636Z,408.00
2023-05-05T11:47:44.583Z,400.00
2023-05-05T11:48:44.527Z,400.00
2023-05-05T11:49:44.734Z,488.00
2023-05-05T11:50:44.642Z,531.00
2023-05-05T11:51:44.645Z,535.00
2023-05-05T11:52:44.694Z,465.00
2023-05-05T11:53:44.606Z,1433.00
2023-05-05T11:54:44.822Z,1081.00
2023-05-05T11:55:44.704Z,1055.00
2023-05-05T11:56:44.785Z,562.00
2023-05-05T11:57:44.734Z,603.00
2023-05-05T11:58:45.815Z,676.00
2023-05-05T11:59:44.904Z,771.00
2023-05-05T12:00:44.855Z,770.00
2023-05-05T12:01:44.879Z,1342.00
2023-05-05T12:02:45.196Z,1138.00
2023-05-05T12:03:45.101Z,1221.00